sensor_id;sensor_type;location;lat;lon;timestamp;P1;durP1;ratioP1;P2;durP2;ratioP2
20857;SDS011;10589;53.636;10.012;2023-02-01T04:47:21;22.87;;;3.87;;
20857;SDS011;10589;53.636;10.012;2023-02-01T04:49:47;27.83;;;4.43;;
20857;SDS011;10589;53.636;10.012;2023-02-01T04:52:12;24.60;;;3.57;;
20857;SDS011;10589;53.636;10.012;2023-02-01T04:54:38;18.13;;;3.07;;
20857;SDS011;10589;53.636;10.012;2023-02-01T04:57:04;16.50;;;2.43;;
20857;SDS011;10589;53.636;10.012;2023-02-01T04:59:29;20.13;;;2.73;;
20857;SDS011;10589;53.636;10.012;2023-02-01T05:01:55;18.27;;;3.13;;
20857;SDS011;10589;53.636;10.012;2023-02-01T05:04:20;14.60;;;2.40;;
20857;SDS011;10589;53.636;10.012;2023-02-01T05:06:46;22.83;;;3.40;;
20857;SDS011;10589;53.636;10.012;2023-02-01T05:09:11;14.17;;;2.63;;
20857;SDS011;10589;53.636;10.012;2023-02-01T05:11:37;16.63;;;3.13;;
20857;SDS011;10589;53.636;10.012;2023-02-01T05:14:21;17.77;;;3.07;;
20857;SDS011;10589;53.636;10.012;2023-02-01T05:16:47;7.70;;;1.67;;
20857;SDS011;10589;53.636;10.012;2023-02-01T05:19:12;7.60;;;1.30;;
20857;SDS011;10589;53.636;10.012;2023-02-01T05:21:38;11.07;;;1.60;;
20857;SDS011;10589;53.636;10.012;2023-02-01T05:24:04;4.60;;;1.47;;
20857;SDS011;10589;53.636;10.012;2023-02-01T05:26:38;7.03;;;1.30;;
20857;SDS011;10589;53.636;10.012;2023-02-01T05:29:05;6.63;;;1.33;;
20857;SDS011;10589;53.636;10.012;2023-02-01T05:31:31;7.80;;;1.33;;
20857;SDS011;10589;53.636;10.012;2023-02-01T05:33:57;4.33;;;1.00;;
20857;SDS011;10589;53.636;10.012;2023-02-01T05:36:23;6.30;;;1.13;;
20857;SDS011;10589;53.636;10.012;2023-02-01T05:38:48;9.13;;;0.80;;
20857;SDS011;10589;53.636;10.012;2023-02-01T05:41:14;3.40;;;0.70;;
20857;SDS011;10589;53.636;10.012;2023-02-01T05:43:39;6.53;;;0.90;;
20857;SDS011;10589;53.636;10.012;2023-02-01T05:46:05;4.00;;;1.17;;
20857;SDS011;10589;53.636;10.012;2023-02-01T05:48:31;3.33;;;0.80;;
20857;SDS011;10589;53.636;10.012;2023-02-01T05:50:56;4.73;;;0.77;;
20857;SDS011;10589;53.636;10.012;2023-02-01T05:53:22;6.90;;;1.03;;
20857;SDS011;10589;53.636;10.012;2023-02-01T05:55:47;3.40;;;0.80;;
20857;SDS011;10589;53.636;10.012;2023-02-01T05:58:13;4.87;;;0.73;;
20857;SDS011;10589;53.636;10.012;2023-02-01T06:00:39;1.83;;;0.60;;
20857;SDS011;10589;53.636;10.012;2023-02-01T06:03:05;3.63;;;0.80;;
20857;SDS011;10589;53.636;10.012;2023-02-01T06:05:30;6.13;;;1.00;;
20857;SDS011;10589;53.636;10.012;2023-02-01T06:07:56;2.50;;;0.70;;
20857;SDS011;10589;53.636;10.012;2023-02-01T06:10:22;2.23;;;0.83;;
20857;SDS011;10589;53.636;10.012;2023-02-01T06:12:48;4.53;;;0.70;;
20857;SDS011;10589;53.636;10.012;2023-02-01T06:15:13;6.37;;;0.90;;
20857;SDS011;10589;53.636;10.012;2023-02-01T06:17:41;6.83;;;1.00;;
20857;SDS011;10589;53.636;10.012;2023-02-01T06:20:09;7.07;;;1.00;;
20857;SDS011;10589;53.636;10.012;2023-02-01T06:22:35;8.40;;;1.20;;
20857;SDS011;10589;53.636;10.012;2023-02-01T06:25:04;6.77;;;1.17;;
20857;SDS011;10589;53.636;10.012;2023-02-01T06:27:32;4.23;;;1.17;;
20857;SDS011;10589;53.636;10.012;2023-02-01T06:29:58;7.43;;;1.70;;
20857;SDS011;10589;53.636;10.012;2023-02-01T06:32:23;9.67;;;1.83;;
20857;SDS011;10589;53.636;10.012;2023-02-01T06:34:49;13.83;;;1.80;;
20857;SDS011;10589;53.636;10.012;2023-02-01T06:37:15;10.63;;;1.83;;
20857;SDS011;10589;53.636;10.012;2023-02-01T06:39:40;6.33;;;1.33;;
20857;SDS011;10589;53.636;10.012;2023-02-01T06:42:09;14.90;;;2.53;;
20857;SDS011;10589;53.636;10.012;2023-02-01T06:44:38;18.67;;;2.07;;
20857;SDS011;10589;53.636;10.012;2023-02-01T06:47:04;14.40;;;2.40;;
20857;SDS011;10589;53.636;10.012;2023-02-01T06:49:29;18.40;;;2.13;;
20857;SDS011;10589;53.636;10.012;2023-02-01T06:51:55;13.00;;;1.57;;
20857;SDS011;10589;53.636;10.012;2023-02-01T06:54:21;16.07;;;2.53;;
20857;SDS011;10589;53.636;10.012;2023-02-01T06:56:46;19.17;;;2.40;;
20857;SDS011;10589;53.636;10.012;2023-02-01T06:59:12;16.77;;;2.93;;
20857;SDS011;10589;53.636;10.012;2023-02-01T07:01:38;21.53;;;3.03;;
20857;SDS011;10589;53.636;10.012;2023-02-01T07:04:04;22.90;;;4.03;;
20857;SDS011;10589;53.636;10.012;2023-02-01T07:06:30;24.97;;;2.77;;
20857;SDS011;10589;53.636;10.012;2023-02-01T07:08:56;17.23;;;2.77;;
20857;SDS011;10589;53.636;10.012;2023-02-01T07:11:22;20.60;;;3.47;;
20857;SDS011;10589;53.636;10.012;2023-02-01T07:13:48;22.97;;;3.50;;
20857;SDS011;10589;53.636;10.012;2023-02-01T07:16:16;22.03;;;3.57;;
20857;SDS011;10589;53.636;10.012;2023-02-01T07:18:44;31.73;;;3.63;;
20857;SDS011;10589;53.636;10.012;2023-02-01T07:21:10;24.40;;;3.50;;
20857;SDS011;10589;53.636;10.012;2023-02-01T07:23:36;22.37;;;3.60;;
20857;SDS011;10589;53.636;10.012;2023-02-01T07:26:04;31.23;;;4.50;;
20857;SDS011;10589;53.636;10.012;2023-02-01T07:28:33;37.73;;;3.97;;
20857;SDS011;10589;53.636;10.012;2023-02-01T07:33:35;32.27;;;4.33;;
20857;SDS011;10589;53.636;10.012;2023-02-01T07:36:04;37.10;;;4.13;;
20857;SDS011;10589;53.636;10.012;2023-02-01T07:38:31;26.97;;;4.17;;
20857;SDS011;10589;53.636;10.012;2023-02-01T07:40:58;34.00;;;4.60;;
20857;SDS011;10589;53.636;10.012;2023-02-01T07:43:30;32.93;;;3.67;;
20857;SDS011;10589;53.636;10.012;2023-02-01T07:45:56;34.77;;;4.13;;
20857;SDS011;10589;53.636;10.012;2023-02-01T07:48:22;30.67;;;4.60;;
20857;SDS011;10589;53.636;10.012;2023-02-01T07:50:57;25.83;;;3.40;;
20857;SDS011;10589;53.636;10.012;2023-02-01T07:53:24;33.80;;;4.07;;
20857;SDS011;10589;53.636;10.012;2023-02-01T07:55:51;28.33;;;4.50;;
20857;SDS011;10589;53.636;10.012;2023-02-01T07:58:27;32.50;;;4.70;;
20857;SDS011;10589;53.636;10.012;2023-02-01T08:00:53;27.93;;;3.70;;
20857;SDS011;10589;53.636;10.012;2023-02-01T08:03:37;39.43;;;5.77;;
20857;SDS011;10589;53.636;10.012;2023-02-01T08:06:03;38.43;;;5.40;;
20857;SDS011;10589;53.636;10.012;2023-02-01T08:08:30;41.90;;;5.80;;
20857;SDS011;10589;53.636;10.012;2023-02-01T08:11:06;44.53;;;6.53;;
20857;SDS011;10589;53.636;10.012;2023-02-01T08:13:35;44.33;;;5.43;;
20857;SDS011;10589;53.636;10.012;2023-02-01T08:16:07;55.07;;;6.50;;
20857;SDS011;10589;53.636;10.012;2023-02-01T08:18:35;51.33;;;6.13;;
20857;SDS011;10589;53.636;10.012;2023-02-01T08:21:08;43.80;;;5.90;;
20857;SDS011;10589;53.636;10.012;2023-02-01T08:23:36;43.90;;;6.07;;
20857;SDS011;10589;53.636;10.012;2023-02-01T08:26:13;36.57;;;5.37;;
20857;SDS011;10589;53.636;10.012;2023-02-01T08:28:40;30.73;;;4.93;;
20857;SDS011;10589;53.636;10.012;2023-02-01T08:31:08;40.33;;;5.47;;
20857;SDS011;10589;53.636;10.012;2023-02-01T08:33:35;27.43;;;4.93;;
20857;SDS011;10589;53.636;10.012;2023-02-01T08:36:03;30.33;;;5.10;;
20857;SDS011;10589;53.636;10.012;2023-02-01T08:38:29;32.33;;;5.10;;
20857;SDS011;10589;53.636;10.012;2023-02-01T08:40:54;38.80;;;4.97;;
20857;SDS011;10589;53.636;10.012;2023-02-01T08:43:20;28.47;;;3.80;;
20857;SDS011;10589;53.636;10.012;2023-02-01T08:45:46;28.43;;;3.60;;
20857;SDS011;10589;53.636;10.012;2023-02-01T08:48:11;31.43;;;3.90;;
20857;SDS011;10589;53.636;10.012;2023-02-01T08:50:37;23.33;;;3.13;;
20857;SDS011;10589;53.636;10.012;2023-02-01T08:53:02;17.43;;;2.83;;
20857;SDS011;10589;53.636;10.012;2023-02-01T08:55:28;21.03;;;2.63;;
20857;SDS011;10589;53.636;10.012;2023-02-01T08:57:54;12.57;;;2.50;;
20857;SDS011;10589;53.636;10.012;2023-02-01T09:00:20;22.13;;;3.63;;
20857;SDS011;10589;53.636;10.012;2023-02-01T09:02:46;17.33;;;2.83;;
20857;SDS011;10589;53.636;10.012;2023-02-01T09:05:12;20.37;;;4.30;;
20857;SDS011;10589;53.636;10.012;2023-02-01T09:07:41;26.43;;;3.83;;
20857;SDS011;10589;53.636;10.012;2023-02-01T09:10:07;19.70;;;2.93;;
20857;SDS011;10589;53.636;10.012;2023-02-01T09:12:33;23.40;;;3.73;;
20857;SDS011;10589;53.636;10.012;2023-02-01T09:14:59;25.70;;;4.03;;
20857;SDS011;10589;53.636;10.012;2023-02-01T09:17:25;31.80;;;4.53;;
20857;SDS011;10589;53.636;10.012;2023-02-01T09:19:52;30.70;;;4.30;;
20857;SDS011;10589;53.636;10.012;2023-02-01T09:22:17;26.87;;;4.13;;
20857;SDS011;10589;53.636;10.012;2023-02-01T09:24:43;27.90;;;5.17;;
20857;SDS011;10589;53.636;10.012;2023-02-01T09:27:09;33.77;;;5.03;;
20857;SDS011;10589;53.636;10.012;2023-02-01T09:29:34;26.23;;;4.47;;
20857;SDS011;10589;53.636;10.012;2023-02-01T09:32:00;36.43;;;4.73;;
20857;SDS011;10589;53.636;10.012;2023-02-01T09:34:26;26.87;;;4.20;;
20857;SDS011;10589;53.636;10.012;2023-02-01T09:36:51;29.87;;;5.27;;
20857;SDS011;10589;53.636;10.012;2023-02-01T09:39:17;25.37;;;3.93;;
20857;SDS011;10589;53.636;10.012;2023-02-01T09:47:14;29.07;;;4.07;;
20857;SDS011;10589;53.636;10.012;2023-02-01T09:49:49;31.47;;;5.20;;
20857;SDS011;10589;53.636;10.012;2023-02-01T09:52:29;25.00;;;4.50;;
20857;SDS011;10589;53.636;10.012;2023-02-01T09:55:04;25.83;;;4.37;;
20857;SDS011;10589;53.636;10.012;2023-02-01T09:58:01;32.87;;;5.17;;
20857;SDS011;10589;53.636;10.012;2023-02-01T10:00:34;27.17;;;4.10;;
20857;SDS011;10589;53.636;10.012;2023-02-01T10:03:02;29.37;;;5.33;;
20857;SDS011;10589;53.636;10.012;2023-02-01T10:05:34;27.70;;;3.90;;
20857;SDS011;10589;53.636;10.012;2023-02-01T10:08:54;27.13;;;4.30;;
20857;SDS011;10589;53.636;10.012;2023-02-01T10:20:04;24.57;;;4.80;;
20857;SDS011;10589;53.636;10.012;2023-02-01T10:23:43;26.17;;;3.60;;
20857;SDS011;10589;53.636;10.012;2023-02-01T10:26:44;31.63;;;4.80;;
20857;SDS011;10589;53.636;10.012;2023-02-01T10:28:46;31.77;;;5.00;;
20857;SDS011;10589;53.636;10.012;2023-02-01T10:31:15;28.30;;;4.03;;
20857;SDS011;10589;53.636;10.012;2023-02-01T10:33:43;33.07;;;4.57;;
20857;SDS011;10589;53.636;10.012;2023-02-01T10:36:31;26.83;;;4.13;;
20857;SDS011;10589;53.636;10.012;2023-02-01T10:39:02;27.83;;;4.17;;
20857;SDS011;10589;53.636;10.012;2023-02-01T10:41:31;28.47;;;3.80;;
20857;SDS011;10589;53.636;10.012;2023-02-01T10:44:03;28.70;;;3.83;;
20857;SDS011;10589;53.636;10.012;2023-02-01T10:46:33;23.97;;;4.47;;
20857;SDS011;10589;53.636;10.012;2023-02-01T10:49:00;29.77;;;3.90;;
20857;SDS011;10589;53.636;10.012;2023-02-01T10:51:29;27.27;;;4.20;;
20857;SDS011;10589;53.636;10.012;2023-02-01T10:54:08;30.20;;;4.33;;
20857;SDS011;10589;53.636;10.012;2023-02-01T10:56:41;36.47;;;4.70;;
20857;SDS011;10589;53.636;10.012;2023-02-01T10:59:15;25.87;;;3.90;;
20857;SDS011;10589;53.636;10.012;2023-02-01T11:01:43;33.50;;;4.33;;
20857;SDS011;10589;53.636;10.012;2023-02-01T11:04:15;27.00;;;3.93;;
20857;SDS011;10589;53.636;10.012;2023-02-01T11:06:44;18.97;;;3.40;;
20857;SDS011;10589;53.636;10.012;2023-02-01T11:09:16;16.50;;;3.37;;
20857;SDS011;10589;53.636;10.012;2023-02-01T11:14:15;20.33;;;3.40;;
20857;SDS011;10589;53.636;10.012;2023-02-01T11:16:46;20.67;;;2.97;;
20857;SDS011;10589;53.636;10.012;2023-02-01T11:19:31;19.13;;;3.37;;
20857;SDS011;10589;53.636;10.012;2023-02-01T11:21:57;21.30;;;3.60;;
20857;SDS011;10589;53.636;10.012;2023-02-01T11:24:31;16.53;;;3.17;;
20857;SDS011;10589;53.636;10.012;2023-02-01T11:27:02;29.63;;;3.83;;
20857;SDS011;10589;53.636;10.012;2023-02-01T11:29:32;26.87;;;5.07;;
20857;SDS011;10589;53.636;10.012;2023-02-01T11:32:05;24.90;;;4.43;;
20857;SDS011;10589;53.636;10.012;2023-02-01T11:37:21;31.00;;;4.37;;
20857;SDS011;10589;53.636;10.012;2023-02-01T11:39:58;30.30;;;4.50;;
20857;SDS011;10589;53.636;10.012;2023-02-01T11:42:26;28.97;;;4.60;;
20857;SDS011;10589;53.636;10.012;2023-02-01T11:45:09;22.53;;;3.60;;
20857;SDS011;10589;53.636;10.012;2023-02-01T11:47:54;28.07;;;4.70;;
20857;SDS011;10589;53.636;10.012;2023-02-01T11:53:49;21.50;;;4.57;;
20857;SDS011;10589;53.636;10.012;2023-02-01T11:56:25;27.27;;;5.10;;
20857;SDS011;10589;53.636;10.012;2023-02-01T12:06:54;17.37;;;3.07;;
20857;SDS011;10589;53.636;10.012;2023-02-01T12:09:45;22.60;;;3.30;;
20857;SDS011;10589;53.636;10.012;2023-02-01T12:12:23;20.80;;;3.47;;
20857;SDS011;10589;53.636;10.012;2023-02-01T12:26:58;10.33;;;2.33;;
20857;SDS011;10589;53.636;10.012;2023-02-01T12:29:57;19.70;;;3.00;;
20857;SDS011;10589;53.636;10.012;2023-02-01T12:32:51;16.83;;;2.87;;
20857;SDS011;10589;53.636;10.012;2023-02-01T12:46:23;4.20;;;0.50;;
20857;SDS011;10589;53.636;10.012;2023-02-01T12:51:58;6.43;;;0.70;;
20857;SDS011;10589;53.636;10.012;2023-02-01T12:54:32;6.00;;;0.97;;
20857;SDS011;10589;53.636;10.012;2023-02-01T12:57:08;4.63;;;0.80;;
20857;SDS011;10589;53.636;10.012;2023-02-01T13:02:49;4.80;;;0.73;;
20857;SDS011;10589;53.636;10.012;2023-02-01T13:05:28;2.83;;;0.60;;
20857;SDS011;10589;53.636;10.012;2023-02-01T13:08:02;2.40;;;0.50;;
20857;SDS011;10589;53.636;10.012;2023-02-01T13:10:36;2.27;;;0.60;;
20857;SDS011;10589;53.636;10.012;2023-02-01T13:15:57;2.23;;;0.60;;
20857;SDS011;10589;53.636;10.012;2023-02-01T13:18:33;1.70;;;0.50;;
20857;SDS011;10589;53.636;10.012;2023-02-01T13:21:22;3.63;;;0.50;;
20857;SDS011;10589;53.636;10.012;2023-02-01T13:23:51;3.47;;;0.60;;
20857;SDS011;10589;53.636;10.012;2023-02-01T13:26:18;4.63;;;0.87;;
20857;SDS011;10589;53.636;10.012;2023-02-01T13:28:47;4.90;;;1.00;;
20857;SDS011;10589;53.636;10.012;2023-02-01T13:37:03;6.17;;;0.83;;
20857;SDS011;10589;53.636;10.012;2023-02-01T13:39:48;2.30;;;0.50;;
20857;SDS011;10589;53.636;10.012;2023-02-01T13:42:51;4.77;;;1.03;;
20857;SDS011;10589;53.636;10.012;2023-02-01T13:45:21;4.03;;;0.70;;
20857;SDS011;10589;53.636;10.012;2023-02-01T13:48:01;4.97;;;0.80;;
20857;SDS011;10589;53.636;10.012;2023-02-01T13:50:38;5.93;;;0.80;;
20857;SDS011;10589;53.636;10.012;2023-02-01T13:55:38;8.33;;;0.70;;
20857;SDS011;10589;53.636;10.012;2023-02-01T14:00:38;5.90;;;1.10;;
20857;SDS011;10589;53.636;10.012;2023-02-01T14:23:41;7.37;;;1.30;;
20857;SDS011;10589;53.636;10.012;2023-02-01T14:26:09;6.00;;;1.40;;
20857;SDS011;10589;53.636;10.012;2023-02-01T14:28:40;6.57;;;1.20;;
20857;SDS011;10589;53.636;10.012;2023-02-01T14:34:02;8.77;;;1.37;;
20857;SDS011;10589;53.636;10.012;2023-02-01T14:36:41;8.20;;;1.57;;
20857;SDS011;10589;53.636;10.012;2023-02-01T14:39:25;9.87;;;1.60;;
20857;SDS011;10589;53.636;10.012;2023-02-01T14:42:14;8.70;;;1.07;;
20857;SDS011;10589;53.636;10.012;2023-02-01T14:44:49;12.23;;;1.90;;
20857;SDS011;10589;53.636;10.012;2023-02-01T14:55:49;11.60;;;1.70;;
20857;SDS011;10589;53.636;10.012;2023-02-01T15:09:16;8.97;;;1.17;;
20857;SDS011;10589;53.636;10.012;2023-02-01T15:11:53;5.83;;;1.50;;
20857;SDS011;10589;53.636;10.012;2023-02-01T15:14:22;10.97;;;1.87;;
20857;SDS011;10589;53.636;10.012;2023-02-01T15:16:48;15.83;;;2.20;;
20857;SDS011;10589;53.636;10.012;2023-02-01T15:19:18;12.43;;;2.17;;
20857;SDS011;10589;53.636;10.012;2023-02-01T15:21:50;14.00;;;1.93;;
20857;SDS011;10589;53.636;10.012;2023-02-01T15:24:22;14.83;;;2.23;;
20857;SDS011;10589;53.636;10.012;2023-02-01T15:26:50;27.33;;;2.93;;
20857;SDS011;10589;53.636;10.012;2023-02-01T15:29:16;21.47;;;3.17;;
20857;SDS011;10589;53.636;10.012;2023-02-01T15:31:47;21.17;;;3.23;;
20857;SDS011;10589;53.636;10.012;2023-02-01T15:34:17;25.00;;;3.10;;
20857;SDS011;10589;53.636;10.012;2023-02-01T15:36:43;17.47;;;2.87;;
20857;SDS011;10589;53.636;10.012;2023-02-01T15:39:17;16.50;;;2.80;;
20857;SDS011;10589;53.636;10.012;2023-02-01T15:41:48;16.67;;;2.60;;
20857;SDS011;10589;53.636;10.012;2023-02-01T15:44:20;17.70;;;2.53;;
20857;SDS011;10589;53.636;10.012;2023-02-01T15:47:05;20.97;;;2.50;;
20857;SDS011;10589;53.636;10.012;2023-02-01T15:49:39;16.30;;;2.83;;
20857;SDS011;10589;53.636;10.012;2023-02-01T15:52:32;22.60;;;3.97;;
20857;SDS011;10589;53.636;10.012;2023-02-01T15:55:03;18.17;;;2.80;;
20857;SDS011;10589;53.636;10.012;2023-02-01T15:57:36;24.97;;;3.50;;
20857;SDS011;10589;53.636;10.012;2023-02-01T16:00:24;24.13;;;2.77;;
20857;SDS011;10589;53.636;10.012;2023-02-01T16:02:59;14.97;;;2.90;;
20857;SDS011;10589;53.636;10.012;2023-02-01T16:05:46;27.37;;;3.77;;
20857;SDS011;10589;53.636;10.012;2023-02-01T16:08:21;30.60;;;3.60;;
20857;SDS011;10589;53.636;10.012;2023-02-01T16:10:50;28.57;;;3.83;;
20857;SDS011;10589;53.636;10.012;2023-02-01T16:13:18;22.33;;;3.40;;
20857;SDS011;10589;53.636;10.012;2023-02-01T16:15:45;31.53;;;4.17;;
20857;SDS011;10589;53.636;10.012;2023-02-01T16:18:12;33.13;;;3.70;;
20857;SDS011;10589;53.636;10.012;2023-02-01T16:20:38;30.03;;;3.93;;
20857;SDS011;10589;53.636;10.012;2023-02-01T16:23:06;25.30;;;4.30;;
20857;SDS011;10589;53.636;10.012;2023-02-01T16:25:33;36.53;;;4.87;;
20857;SDS011;10589;53.636;10.012;2023-02-01T16:27:59;30.93;;;4.90;;
20857;SDS011;10589;53.636;10.012;2023-02-01T16:30:25;34.97;;;5.57;;
20857;SDS011;10589;53.636;10.012;2023-02-01T16:32:54;33.10;;;4.07;;
20857;SDS011;10589;53.636;10.012;2023-02-01T16:35:23;40.03;;;3.87;;
20857;SDS011;10589;53.636;10.012;2023-02-01T16:37:56;28.20;;;5.00;;
20857;SDS011;10589;53.636;10.012;2023-02-01T16:40:23;31.07;;;5.47;;
20857;SDS011;10589;53.636;10.012;2023-02-01T16:42:50;34.70;;;4.83;;
20857;SDS011;10589;53.636;10.012;2023-02-01T16:45:18;33.10;;;5.13;;
20857;SDS011;10589;53.636;10.012;2023-02-01T16:47:45;24.77;;;3.83;;
20857;SDS011;10589;53.636;10.012;2023-02-01T16:50:16;28.23;;;4.80;;
20857;SDS011;10589;53.636;10.012;2023-02-01T16:52:43;28.20;;;4.20;;
20857;SDS011;10589;53.636;10.012;2023-02-01T16:55:13;34.07;;;5.23;;
20857;SDS011;10589;53.636;10.012;2023-02-01T16:57:42;36.27;;;6.00;;
20857;SDS011;10589;53.636;10.012;2023-02-01T17:00:08;42.30;;;5.50;;
20857;SDS011;10589;53.636;10.012;2023-02-01T17:02:35;35.40;;;6.43;;
20857;SDS011;10589;53.636;10.012;2023-02-01T17:05:00;41.03;;;5.90;;
20857;SDS011;10589;53.636;10.012;2023-02-01T17:07:26;38.23;;;4.90;;
20857;SDS011;10589;53.636;10.012;2023-02-01T17:09:52;36.77;;;5.53;;
20857;SDS011;10589;53.636;10.012;2023-02-01T17:12:21;40.43;;;6.37;;
20857;SDS011;10589;53.636;10.012;2023-02-01T17:14:51;43.63;;;6.30;;
20857;SDS011;10589;53.636;10.012;2023-02-01T17:17:17;47.13;;;7.03;;
20857;SDS011;10589;53.636;10.012;2023-02-01T17:19:45;36.50;;;5.30;;
20857;SDS011;10589;53.636;10.012;2023-02-01T17:22:16;35.63;;;5.80;;
20857;SDS011;10589;53.636;10.012;2023-02-01T17:24:43;35.83;;;5.87;;
20857;SDS011;10589;53.636;10.012;2023-02-01T17:27:08;38.53;;;5.13;;
20857;SDS011;10589;53.636;10.012;2023-02-01T17:29:34;35.57;;;5.37;;
20857;SDS011;10589;53.636;10.012;2023-02-01T17:32:00;34.40;;;4.87;;
20857;SDS011;10589;53.636;10.012;2023-02-01T17:34:26;35.87;;;5.23;;
20857;SDS011;10589;53.636;10.012;2023-02-01T17:36:52;34.30;;;5.17;;
20857;SDS011;10589;53.636;10.012;2023-02-01T17:39:18;35.60;;;4.97;;
20857;SDS011;10589;53.636;10.012;2023-02-01T17:42:03;32.33;;;4.57;;
20857;SDS011;10589;53.636;10.012;2023-02-01T17:44:30;35.20;;;5.43;;
20857;SDS011;10589;53.636;10.012;2023-02-01T17:46:56;38.60;;;6.17;;
20857;SDS011;10589;53.636;10.012;2023-02-01T17:49:23;31.87;;;4.27;;
20857;SDS011;10589;53.636;10.012;2023-02-01T17:51:49;31.93;;;4.40;;
20857;SDS011;10589;53.636;10.012;2023-02-01T17:54:15;30.03;;;4.93;;
20857;SDS011;10589;53.636;10.012;2023-02-01T17:56:43;36.60;;;4.93;;
20857;SDS011;10589;53.636;10.012;2023-02-01T17:59:11;32.17;;;4.90;;
20857;SDS011;10589;53.636;10.012;2023-02-01T18:01:36;31.17;;;5.30;;
20857;SDS011;10589;53.636;10.012;2023-02-01T18:04:02;29.30;;;4.97;;
20857;SDS011;10589;53.636;10.012;2023-02-01T18:06:28;28.40;;;4.27;;
20857;SDS011;10589;53.636;10.012;2023-02-01T18:08:58;30.90;;;4.87;;
20857;SDS011;10589;53.636;10.012;2023-02-01T18:11:24;31.20;;;4.50;;
20857;SDS011;10589;53.636;10.012;2023-02-01T18:13:50;28.03;;;4.47;;
20857;SDS011;10589;53.636;10.012;2023-02-01T18:16:21;26.17;;;5.20;;
20857;SDS011;10589;53.636;10.012;2023-02-01T18:18:49;22.93;;;4.87;;
20857;SDS011;10589;53.636;10.012;2023-02-01T18:21:18;32.67;;;6.03;;
20857;SDS011;10589;53.636;10.012;2023-02-01T18:23:47;31.10;;;4.37;;
20857;SDS011;10589;53.636;10.012;2023-02-01T18:26:14;33.70;;;5.93;;
20857;SDS011;10589;53.636;10.012;2023-02-01T18:28:41;34.17;;;4.57;;
20857;SDS011;10589;53.636;10.012;2023-02-01T18:31:10;32.37;;;5.43;;
20857;SDS011;10589;53.636;10.012;2023-02-01T18:33:47;28.60;;;5.03;;
20857;SDS011;10589;53.636;10.012;2023-02-01T18:36:13;29.97;;;5.13;;
20857;SDS011;10589;53.636;10.012;2023-02-01T18:38:39;34.37;;;5.17;;
20857;SDS011;10589;53.636;10.012;2023-02-01T18:41:06;38.53;;;5.17;;
20857;SDS011;10589;53.636;10.012;2023-02-01T18:43:41;27.20;;;4.63;;
20857;SDS011;10589;53.636;10.012;2023-02-01T18:46:10;35.07;;;5.00;;
20857;SDS011;10589;53.636;10.012;2023-02-01T18:48:36;25.63;;;4.90;;
20857;SDS011;10589;53.636;10.012;2023-02-01T18:51:03;31.53;;;4.73;;
20857;SDS011;10589;53.636;10.012;2023-02-01T18:53:29;30.40;;;4.83;;
20857;SDS011;10589;53.636;10.012;2023-02-01T18:55:55;28.00;;;5.37;;
20857;SDS011;10589;53.636;10.012;2023-02-01T18:58:21;37.63;;;4.53;;
20857;SDS011;10589;53.636;10.012;2023-02-01T19:00:51;37.60;;;5.37;;
20857;SDS011;10589;53.636;10.012;2023-02-01T19:03:18;30.90;;;5.30;;
20857;SDS011;10589;53.636;10.012;2023-02-01T19:05:45;34.13;;;5.17;;
20857;SDS011;10589;53.636;10.012;2023-02-01T19:08:11;28.93;;;4.63;;
20857;SDS011;10589;53.636;10.012;2023-02-01T19:10:37;31.93;;;4.27;;
20857;SDS011;10589;53.636;10.012;2023-02-01T19:13:05;26.10;;;5.57;;
20857;SDS011;10589;53.636;10.012;2023-02-01T19:15:32;27.77;;;4.47;;
20857;SDS011;10589;53.636;10.012;2023-02-01T19:17:59;28.13;;;4.57;;
20857;SDS011;10589;53.636;10.012;2023-02-01T19:20:26;33.20;;;5.27;;
20857;SDS011;10589;53.636;10.012;2023-02-01T19:22:52;29.00;;;4.70;;
20857;SDS011;10589;53.636;10.012;2023-02-01T19:25:18;34.43;;;4.53;;
20857;SDS011;10589;53.636;10.012;2023-02-01T19:27:46;32.20;;;4.67;;
20857;SDS011;10589;53.636;10.012;2023-02-01T19:30:12;26.97;;;4.87;;
20857;SDS011;10589;53.636;10.012;2023-02-01T19:32:38;27.27;;;4.40;;
20857;SDS011;10589;53.636;10.012;2023-02-01T19:35:04;23.87;;;3.53;;
20857;SDS011;10589;53.636;10.012;2023-02-01T19:37:31;19.33;;;2.87;;
20857;SDS011;10589;53.636;10.012;2023-02-01T19:39:57;20.00;;;3.60;;
20857;SDS011;10589;53.636;10.012;2023-02-01T19:42:26;15.30;;;3.87;;
20857;SDS011;10589;53.636;10.012;2023-02-01T19:44:53;16.00;;;2.00;;
20857;SDS011;10589;53.636;10.012;2023-02-01T19:47:19;12.53;;;2.37;;
20857;SDS011;10589;53.636;10.012;2023-02-01T19:49:45;17.50;;;2.23;;
20857;SDS011;10589;53.636;10.012;2023-02-01T19:52:10;12.07;;;2.20;;
20857;SDS011;10589;53.636;10.012;2023-02-01T19:54:36;22.13;;;2.83;;
20857;SDS011;10589;53.636;10.012;2023-02-01T19:57:02;16.33;;;2.27;;
20857;SDS011;10589;53.636;10.012;2023-02-01T19:59:28;17.30;;;2.30;;
20857;SDS011;10589;53.636;10.012;2023-02-01T20:01:53;15.30;;;2.77;;
20857;SDS011;10589;53.636;10.012;2023-02-01T20:04:19;21.13;;;3.67;;
20857;SDS011;10589;53.636;10.012;2023-02-01T20:06:47;16.87;;;3.87;;
20857;SDS011;10589;53.636;10.012;2023-02-01T20:09:20;14.10;;;2.73;;
20857;SDS011;10589;53.636;10.012;2023-02-01T20:11:47;21.07;;;2.97;;
20857;SDS011;10589;53.636;10.012;2023-02-01T20:14:13;29.77;;;3.70;;
20857;SDS011;10589;53.636;10.012;2023-02-01T20:16:40;15.90;;;3.03;;
20857;SDS011;10589;53.636;10.012;2023-02-01T20:19:06;30.87;;;5.40;;
20857;SDS011;10589;53.636;10.012;2023-02-01T20:21:34;26.33;;;4.43;;
20857;SDS011;10589;53.636;10.012;2023-02-01T20:24:00;28.53;;;4.00;;
20857;SDS011;10589;53.636;10.012;2023-02-01T20:26:26;36.77;;;4.73;;
20857;SDS011;10589;53.636;10.012;2023-02-01T20:28:52;34.53;;;4.77;;
20857;SDS011;10589;53.636;10.012;2023-02-01T20:31:19;30.37;;;4.73;;
20857;SDS011;10589;53.636;10.012;2023-02-01T20:33:45;30.57;;;5.53;;
20857;SDS011;10589;53.636;10.012;2023-02-01T20:36:11;34.57;;;5.20;;
20857;SDS011;10589;53.636;10.012;2023-02-01T20:38:36;25.10;;;4.80;;
20857;SDS011;10589;53.636;10.012;2023-02-01T20:41:02;34.00;;;5.63;;
20857;SDS011;10589;53.636;10.012;2023-02-01T20:43:29;34.80;;;5.53;;
20857;SDS011;10589;53.636;10.012;2023-02-01T20:45:55;39.80;;;5.67;;
20857;SDS011;10589;53.636;10.012;2023-02-01T20:48:21;46.27;;;5.87;;
20857;SDS011;10589;53.636;10.012;2023-02-01T20:50:46;40.50;;;6.47;;
20857;SDS011;10589;53.636;10.012;2023-02-01T20:53:16;36.33;;;5.77;;
20857;SDS011;10589;53.636;10.012;2023-02-01T20:55:42;45.47;;;5.90;;
20857;SDS011;10589;53.636;10.012;2023-02-01T20:58:07;38.90;;;6.03;;
20857;SDS011;10589;53.636;10.012;2023-02-01T21:00:33;40.07;;;5.97;;
20857;SDS011;10589;53.636;10.012;2023-02-01T21:02:58;36.50;;;5.60;;
20857;SDS011;10589;53.636;10.012;2023-02-01T21:05:24;38.00;;;5.13;;
20857;SDS011;10589;53.636;10.012;2023-02-01T21:08:04;31.83;;;5.37;;
20857;SDS011;10589;53.636;10.012;2023-02-01T21:10:33;36.30;;;5.47;;
20857;SDS011;10589;53.636;10.012;2023-02-01T21:13:00;34.23;;;5.20;;
20857;SDS011;10589;53.636;10.012;2023-02-01T21:15:26;36.70;;;5.10;;
20857;SDS011;10589;53.636;10.012;2023-02-01T21:17:51;36.63;;;6.10;;
20857;SDS011;10589;53.636;10.012;2023-02-01T21:20:17;31.27;;;6.10;;
20857;SDS011;10589;53.636;10.012;2023-02-01T21:22:43;35.80;;;6.10;;